Time;durP1;ratioP1;P1;durP2;ratioP2;P2;SDS_P1;SDS_P2;PMS_P1;PMS_P2;Temp;Humidity;BMP_temperature;BMP_pressure;BME280_temperature;BME280_humidity;BME280_pressure;Samples;Min_cycle;Max_cycle;Signal;HPM_P1;HPM_P2
2021/08/31 03:31:16;;;;;;;23.60;17.30;;;;;;;19.62;64.90;99018.41;8588823;22;20195;-85
2021/08/31 03:34:37;;;;;;;20.30;17.63;;;;;;;20.12;64.91;99079.16;8573425;23;20189;-85
2021/08/31 03:37:59;;;;;;;20.90;15.60;;;;;;;19.94;64.43;99063.88;8575865;23;20185;-87
2021/08/31 03:41:21;;;;;;;21.77;17.77;;;;;;;19.90;64.80;99072.88;8591828;23;20244;-87
2021/08/31 03:44:42;;;;;;;21.17;16.97;;;;;;;20.14;64.54;99071.50;8577197;23;20179;-87
2021/08/31 04:33:57;;;;;;;22.17;17.80;;;;;;;20.13;64.64;99147.34;8591137;22;20217;-89
2021/08/31 04:37:19;;;;;;;21.37;18.73;;;;;;;19.49;65.75;99093.50;8586940;23;20179;-89
2021/08/31 04:40:41;;;;;;;25.27;18.37;;;;;;;19.83;65.29;99091.41;8586603;23;20182;-88
2021/08/31 04:44:03;;;;;;;24.07;18.40;;;;;;;19.75;65.27;99100.09;8587435;23;20178;-87
2021/08/31 04:47:24;;;;;;;24.77;19.63;;;;;;;19.37;64.85;99015.41;8586803;23;20209;-87
2021/08/31 04:50:47;;;;;;;24.07;18.20;;;;;;;19.61;65.51;99096.09;8573227;23;20178;-87
2021/08/31 04:54:09;;;;;;;22.73;18.40;;;;;;;19.18;65.39;99041.41;8587415;23;20182;-87
2021/08/31 04:57:31;;;;;;;22.63;18.10;;;;;;;19.68;65.16;99089.34;8586823;23;20174;-87
2021/08/31 05:00:53;;;;;;;21.97;19.23;;;;;;;19.10;65.63;99009.84;8586394;23;20172;-87
2021/08/31 05:04:14;;;;;;;24.07;19.03;;;;;;;19.55;65.32;99080.69;8575272;23;20183;-87
2021/08/31 05:07:38;;;;;;;21.27;18.20;;;;;;;18.98;65.64;99000.16;8590101;23;20196;-87
2021/08/31 05:11:00;;;;;;;23.00;18.53;;;;;;;19.61;65.61;99134.38;8574792;23;20181;-87
2021/08/31 05:14:21;;;;;;;24.97;18.53;;;;;;;18.37;65.91;98940.31;8589216;23;20179;-87
2021/08/31 05:17:43;;;;;;;21.63;17.67;;;;;;;18.74;65.49;98958.56;8589509;23;20216;-87
2021/08/31 05:21:05;;;;;;;19.53;16.57;;;;;;;19.84;65.46;99161.47;8575422;23;20644;-87
2021/08/31 05:24:29;;;;;;;18.97;16.60;;;;;;;19.05;65.00;99028.09;8575160;23;20183;-87
2021/08/31 05:27:51;;;;;;;22.10;17.50;;;;;;;19.11;65.38;99063.44;8589325;23;20194;-87
2021/08/31 05:31:13;;;;;;;23.70;17.23;;;;;;;19.63;64.64;99102.16;8589460;23;20181;-87
2021/08/31 05:34:35;;;;;;;18.70;15.60;;;;;;;19.31;64.81;99080.16;8613914;23;20193;-87
2021/08/31 05:37:56;;;;;;;19.67;15.93;;;;;;;19.82;64.46;99134.38;8631055;23;20513;-87
2021/08/31 05:41:19;;;;;;;17.90;15.50;;;;;;;19.21;64.09;99014.41;8630958;23;20181;-87
2021/08/31 05:44:42;;;;;;;17.40;15.47;;;;;;;19.62;64.05;99073.97;8630910;23;20193;-87
2021/08/31 05:48:04;;;;;;;17.70;14.93;;;;;;;19.25;64.30;99048.34;8630601;23;20230;-87
2021/08/31 05:51:27;;;;;;;16.17;14.53;;;;;;;20.03;63.78;99129.94;8630715;23;20177;-87
2021/08/31 05:54:48;;;;;;;15.80;14.10;;;;;;;19.75;63.36;99097.38;8631095;22;20184;-87
2021/08/31 05:58:12;;;;;;;15.43;13.17;;;;;;;19.40;63.54;99075.06;8630997;23;20178;-87
2021/08/31 06:01:34;;;;;;;14.60;13.10;;;;;;;19.17;63.92;99056.97;8630692;22;20268;-87
2021/08/31 06:04:56;;;;;;;16.07;13.20;;;;;;;19.93;63.14;99140.81;8630716;23;20174;-87
2021/08/31 06:08:17;;;;;;;13.60;12.20;;;;;;;20.03;63.54;99184.69;8616702;23;20198;-87
2021/08/31 06:11:40;;;;;;;15.33;13.10;;;;;;;20.03;64.21;99225.75;8616867;23;20189;-87
2021/08/31 06:15:03;;;;;;;19.93;12.63;;;;;;;19.12;63.97;99058.81;8630353;22;20170;-87
2021/08/31 06:18:25;;;;;;;14.47;12.40;;;;;;;19.63;63.26;99107.63;8630179;23;20253;-87
2021/08/31 06:21:47;;;;;;;15.93;12.43;;;;;;;20.18;63.11;99171.22;8630525;23;20176;-86
2021/08/31 06:25:10;;;;;;;13.27;11.90;;;;;;;20.58;62.32;99216.28;8630828;23;20173;-87
2021/08/31 06:28:32;;;;;;;13.13;11.20;;;;;;;20.31;61.66;99137.94;8630216;23;20194;-86
2021/08/31 06:31:55;;;;;;;12.13;10.93;;;;;;;19.52;61.44;99032.81;8630134;23;20256;-87
2021/08/31 06:35:17;;;;;;;14.37;11.83;;;;;;;19.70;61.64;99050.78;8616810;23;20163;-87
2021/08/31 06:38:39;;;;;;;13.90;11.63;;;;;;;19.94;61.49;99094.00;8629840;23;20628;-87
2021/08/31 06:42:01;;;;;;;11.70;10.53;;;;;;;19.93;62.28;99106.03;8629896;23;20178;-87
2021/08/31 06:45:22;;;;;;;12.27;10.03;;;;;;;20.26;61.50;99130.50;8630687;23;20495;-87
2021/08/31 06:48:46;;;;;;;12.47;10.10;;;;;;;21.01;61.45;99218.06;8629582;23;20193;-87
2021/08/31 06:52:08;;;;;;;10.93;9.83;;;;;;;20.51;61.65;99158.13;8629877;23;20171;-87
2021/08/31 06:55:30;;;;;;;10.87;9.83;;;;;;;20.15;60.88;99095.06;8629775;23;20177;-87
2021/08/31 06:58:51;;;;;;;11.10;9.23;;;;;;;19.88;60.83;99039.47;8616088;23;20182;-87
2021/08/31 07:02:13;;;;;;;11.07;9.90;;;;;;;20.36;60.52;99127.03;8629931;22;20197;-86
2021/08/31 07:05:36;;;;;;;9.87;8.80;;;;;;;20.27;60.60;99095.75;8616261;23;20482;-86
2021/08/31 07:08:59;;;;;;;10.80;9.13;;;;;;;20.21;60.12;99056.53;8615773;23;20208;-87
2021/08/31 07:12:21;;;;;;;10.17;9.07;;;;;;;21.10;60.34;99224.72;8615695;23;20188;-87
2021/08/31 07:15:43;;;;;;;10.93;9.53;;;;;;;20.62;60.22;99159.88;8616134;23;20185;-87
2021/08/31 07:19:05;;;;;;;12.27;9.77;;;;;;;20.70;60.05;99122.94;8629267;23;20205;-87
2021/08/31 07:22:29;;;;;;;9.90;8.97;;;;;;;20.59;58.93;99091.06;8615807;23;20185;-87
2021/08/31 07:25:51;;;;;;;11.80;9.17;;;;;;;21.16;59.65;99205.28;8629434;23;20169;-87
2021/08/31 07:29:13;;;;;;;11.23;10.03;;;;;;;20.93;59.80;99130.84;8629625;23;20204;-87
2021/08/31 07:32:35;;;;;;;10.73;9.43;;;;;;;20.60;59.06;99068.91;8629157;23;20182;-87
2021/08/31 07:35:57;;;;;;;11.20;10.00;;;;;;;20.72;58.63;99068.69;8629062;22;20185;-87
2021/08/31 07:39:20;;;;;;;15.03;10.07;;;;;;;21.28;58.61;99181.22;8614947;23;20180;-87
2021/08/31 07:42:42;;;;;;;10.50;9.40;;;;;;;20.38;59.32;99101.03;8629337;23;20170;-87
2021/08/31 07:46:04;;;;;;;12.77;8.93;;;;;;;20.21;59.67;99091.28;8629736;22;20615;-87
2021/08/31 07:49:26;;;;;;;9.27;8.47;;;;;;;21.06;59.18;99130.38;8628590;23;20199;-87
2021/08/31 07:52:48;;;;;;;9.93;7.30;;;;;;;20.98;57.58;99126.19;8615553;23;20178;-87
2021/08/31 07:56:11;;;;;;;8.17;7.37;;;;;;;20.83;57.76;99092.34;8615634;23;20190;-87
2021/08/31 07:59:33;;;;;;;8.33;7.50;;;;;;;21.28;57.34;99183.97;8629334;23;20174;-87
2021/08/31 08:02:55;;;;;;;7.53;6.70;;;;;;;21.33;56.92;99162.91;8628821;22;20200;-87
2021/08/31 08:06:18;;;;;;;7.67;6.87;;;;;;;20.95;56.83;99140.44;8615471;23;20194;-87
2021/08/31 08:09:39;;;;;;;8.67;7.77;;;;;;;21.65;56.57;99193.00;8628330;22;20207;-86
2021/08/31 08:13:03;;;;;;;7.90;7.10;;;;;;;22.11;56.79;99258.03;8629028;23;20198;-87
2021/08/31 08:16:26;;;;;;;8.87;7.33;;;;;;;21.31;55.94;99148.63;8633744;23;20225;-87
2021/08/31 08:19:48;;;;;;;13.90;9.63;;;;;;;20.66;58.56;99114.44;8629477;23;20169;-87
2021/08/31 08:23:12;;;;;;;12.93;9.50;;;;;;;20.06;60.18;99082.91;8629363;23;20173;-86
2021/08/31 08:26:34;;;;;;;11.10;8.97;;;;;;;21.06;59.64;99190.69;8629366;23;20178;-87
2021/08/31 08:29:57;;;;;;;10.27;9.27;;;;;;;20.57;58.52;99117.91;8615307;23;20687;-87
2021/08/31 08:33:20;;;;;;;13.27;9.20;;;;;;;21.08;59.06;99177.53;8629028;23;20207;-87
2021/08/31 08:36:42;;;;;;;17.87;10.10;;;;;;;21.22;59.48;99250.06;8628580;22;20181;-87
2021/08/31 08:40:05;;;;;;;10.77;9.67;;;;;;;21.34;59.32;99211.19;8628956;23;20174;-87
2021/08/31 08:43:30;;;;;;;11.73;9.10;;;;;;;20.77;60.05;99181.09;8615151;23;20177;-87
2021/08/31 08:46:53;;;;;;;9.77;8.50;;;;;;;22.00;58.36;99287.38;8629426;22;20503;-87
2021/08/31 08:50:15;;;;;;;10.17;7.97;;;;;;;21.50;57.45;99218.44;8617306;23;20518;-87
2021/08/31 08:53:39;;;;;;;10.80;9.13;;;;;;;21.33;56.43;99162.06;8628640;23;20176;-87
2021/08/31 08:57:01;;;;;;;8.40;7.50;;;;;;;21.64;56.19;99196.81;8629127;22;20177;-87
2021/08/31 09:00:55;;;;;;;9.13;8.23;;;;;;;21.91;56.01;99239.56;8614169;23;20300;-87
2021/08/31 09:04:21;;;;;;;8.70;7.77;;;;;;;21.57;56.20;99221.75;8614830;23;20190;-87
2021/08/31 09:07:43;;;;;;;8.00;7.20;;;;;;;22.16;56.19;99297.34;8628767;23;20158;-87
2021/08/31 09:11:23;;;;;;;8.23;7.43;;;;;;;21.84;55.88;99284.81;8628223;23;20201;-87
2021/08/31 09:14:45;;;;;;;9.63;7.50;;;;;;;21.15;56.16;99148.78;8615033;23;20505;-86
2021/08/31 09:18:16;;;;;;;9.33;8.00;;;;;;;21.72;56.54;99264.97;8628566;23;20174;-87
2021/08/31 09:21:40;;;;;;;8.00;7.20;;;;;;;20.97;56.75;99162.09;8628786;23;20596;-87
2021/08/31 09:25:15;;;;;;;9.53;7.43;;;;;;;21.06;58.01;99229.06;8587406;23;20307;-87
2021/08/31 09:28:38;;;;;;;8.70;7.23;;;;;;;21.04;56.67;99225.78;8614272;23;20192;-86
2021/08/31 09:32:00;;;;;;;7.77;6.97;;;;;;;20.65;57.21;99200.47;8613535;23;20316;-86
2021/08/31 09:35:21;;;;;;;8.40;7.00;;;;;;;21.80;57.00;99339.44;8628641;23;20174;-86
2021/08/31 09:39:06;;;;;;;7.83;6.97;;;;;;;21.08;57.16;99257.06;8614467;23;20176;-87
2021/08/31 09:42:29;;;;;;;7.70;6.97;;;;;;;20.64;57.22;99129.47;8628290;23;20256;-86
2021/08/31 09:45:52;;;;;;;7.40;6.37;;;;;;;20.49;56.69;99164.94;8627531;23;20600;-86
2021/08/31 09:49:19;;;;;;;9.20;7.33;;;;;;;21.81;56.06;99299.06;8615401;23;20190;-86
2021/08/31 09:52:41;;;;;;;7.93;7.20;;;;;;;21.13;56.07;99183.91;8630947;23;20174;-87
2021/08/31 09:56:08;;;;;;;8.57;7.77;;;;;;;21.11;57.27;99279.28;8617073;23;20184;-86
2021/08/31 09:59:31;;;;;;;8.07;7.37;;;;;;;21.38;56.94;99253.47;8630816;23;20265;-86
2021/08/31 10:02:52;;;;;;;7.60;6.90;;;;;;;21.47;55.74;99226.34;8616670;22;20648;-86
2021/08/31 10:06:14;;;;;;;8.40;7.07;;;;;;;21.39;55.66;99188.44;8631117;23;20181;-86
2021/08/31 10:09:39;;;;;;;7.70;7.00;;;;;;;21.95;54.82;99251.63;8630754;22;20203;-87
2021/08/31 10:13:06;;;;;;;6.43;5.80;;;;;;;22.31;53.45;99289.16;8617040;23;20183;-87
2021/08/31 10:16:28;;;;;;;9.20;6.10;;;;;;;21.05;54.26;99164.38;8616959;23;20195;-86
2021/08/31 10:19:52;;;;;;;7.80;6.57;;;;;;;21.99;53.69;99197.84;8630174;22;20184;-86
2021/08/31 10:23:14;;;;;;;7.73;5.63;;;;;;;21.65;52.57;99162.81;8631473;23;20175;-86
2021/08/31 10:26:38;;;;;;;8.20;6.37;;;;;;;22.45;51.48;99223.56;8617239;23;20187;-87
2021/08/31 10:30:29;;;;;;;7.03;5.33;;;;;;;23.06;51.72;99340.81;8630835;23;20204;-85
2021/08/31 10:33:50;;;;;;;5.53;5.03;;;;;;;22.24;50.63;99178.69;8634936;23;20232;-86
2021/08/31 10:37:17;;;;;;;6.80;5.53;;;;;;;22.66;48.57;99195.81;8617010;23;20182;-86
2021/08/31 10:40:41;;;;;;;5.97;4.57;;;;;;;21.84;48.07;99155.78;8617030;23;20232;-87
2021/08/31 10:44:04;;;;;;;5.30;4.80;;;;;;;22.07;49.78;99300.88;8630346;23;20174;-86
2021/08/31 10:47:31;;;;;;;5.57;5.03;;;;;;;21.38;50.89;99179.41;8616055;23;20180;-86
2021/08/31 10:50:59;;;;;;;5.70;4.90;;;;;;;21.08;50.80;99213.19;8629507;23;20305;-86
2021/08/31 10:54:45;;;;;;;6.10;4.93;;;;;;;22.53;48.83;99198.31;8630082;23;20222;-86
2021/08/31 10:58:11;;;;;;;5.80;5.17;;;;;;;22.56;49.43;99173.00;8615830;23;20600;-86
2021/08/31 11:01:37;;;;;;;5.23;4.80;;;;;;;22.91;47.44;99219.78;8629076;22;20194;-85
2021/08/31 11:05:27;;;;;;;5.47;4.67;;;;;;;22.98;49.63;99284.41;8615845;23;20170;-85
2021/08/31 11:09:12;;;;;;;5.43;4.90;;;;;;;23.73;47.55;99333.97;8615953;23;20571;-85
2021/08/31 11:12:33;;;;;;;5.87;5.27;;;;;;;22.98;47.36;99239.56;8616069;23;20178;-85
2021/08/31 11:15:57;;;;;;;6.33;5.03;;;;;;;23.16;47.43;99322.44;8615510;23;20185;-85
2021/08/31 11:19:27;;;;;;;4.97;4.47;;;;;;;23.34;47.69;99283.38;8629442;23;20178;-85
2021/08/31 11:22:53;;;;;;;5.80;5.03;;;;;;;22.99;47.33;99236.56;8629647;23;20158;-85
2021/08/31 11:26:23;;;;;;;5.03;4.63;;;;;;;23.46;47.23;99261.88;8629414;22;20172;-85
2021/08/31 11:29:56;;;;;;;5.97;4.60;;;;;;;23.51;45.64;99248.13;8629081;23;20334;-86
2021/08/31 11:33:21;;;;;;;4.60;4.20;;;;;;;23.43;45.09;99182.59;8629469;23;20269;-85
2021/08/31 11:36:43;;;;;;;5.27;4.50;;;;;;;23.65;46.35;99284.97;8629345;23;20195;-85
2021/08/31 11:40:08;;;;;;;5.93;4.97;;;;;;;23.73;46.19;99267.06;8629177;23;20507;-86
2021/08/31 11:43:31;;;;;;;6.00;4.63;;;;;;;23.67;46.44;99238.69;8615109;23;20179;-85
2021/08/31 11:46:54;;;;;;;5.67;4.57;;;;;;;23.52;46.99;99281.97;8616272;23;20623;-85
2021/08/31 11:50:19;;;;;;;5.73;5.23;;;;;;;24.93;46.15;99371.41;8614827;23;20202;-85
2021/08/31 11:53:40;;;;;;;5.30;4.80;;;;;;;24.15;47.19;99262.00;8615548;23;20492;-85
2021/08/31 11:57:05;;;;;;;5.80;4.87;;;;;;;24.20;47.65;99326.19;8615341;23;20180;-85
2021/08/31 12:00:39;;;;;;;5.53;5.00;;;;;;;22.95;48.51;99267.63;8629475;23;20185;-85
2021/08/31 12:04:27;;;;;;;8.83;5.87;;;;;;;23.23;48.48;99327.66;8615357;22;20345;-85
2021/08/31 12:07:50;;;;;;;5.23;4.73;;;;;;;24.09;48.72;99323.75;8589148;23;20313;-85
2021/08/31 12:11:12;;;;;;;5.13;4.67;;;;;;;24.58;46.53;99283.34;8614172;23;20203;-85
2021/08/31 12:14:35;;;;;;;5.60;5.10;;;;;;;24.66;44.98;99239.44;8628958;23;20194;-85
2021/08/31 12:18:01;;;;;;;5.50;4.90;;;;;;;25.31;44.52;99332.03;8628827;23;20174;-85
2021/08/31 12:21:24;;;;;;;5.00;4.60;;;;;;;25.54;44.31;99354.19;8614728;23;20184;-85
2021/08/31 12:24:46;;;;;;;5.30;4.80;;;;;;;25.41;43.75;99258.22;8628508;23;20185;-85
2021/08/31 12:28:08;;;;;;;5.63;4.93;;;;;;;25.42;43.58;99272.84;8612165;22;20196;-85
2021/08/31 12:31:31;;;;;;;5.70;4.57;;;;;;;26.00;44.32;99376.72;8614492;23;20203;-85
2021/08/31 12:34:54;;;;;;;5.20;4.70;;;;;;;25.43;43.87;99286.34;8628773;23;20174;-85
2021/08/31 12:38:18;;;;;;;6.23;5.30;;;;;;;24.46;47.30;99371.03;8614730;23;20501;-85
2021/08/31 12:41:42;;;;;;;6.33;5.20;;;;;;;23.99;47.60;99327.38;8614930;23;20270;-85
2021/08/31 12:45:04;;;;;;;5.47;5.00;;;;;;;23.91;48.55;99388.53;8615491;23;20649;-85
2021/08/31 12:48:39;;;;;;;5.80;5.30;;;;;;;22.38;50.34;99243.03;8616387;23;20181;-85
2021/08/31 12:52:14;;;;;;;6.13;5.53;;;;;;;22.63;49.94;99256.88;8614338;23;20206;-85
2021/08/31 12:55:37;;;;;;;7.80;5.67;;;;;;;23.43;50.00;99334.00;8628146;23;20174;-85
2021/08/31 12:59:04;;;;;;;7.40;5.33;;;;;;;22.57;50.20;99255.19;8614652;23;20510;-85
2021/08/31 13:02:35;;;;;;;5.53;5.03;;;;;;;23.37;48.44;99282.78;8614551;22;20203;-85
2021/08/31 13:05:59;;;;;;;7.13;5.57;;;;;;;23.53;48.73;99287.19;8629019;23;20153;-85
2021/08/31 13:09:24;;;;;;;5.67;5.07;;;;;;;23.13;48.61;99247.84;8627854;22;20279;-85
2021/08/31 13:12:49;;;;;;;6.60;5.33;;;;;;;23.27;48.51;99332.34;8629150;23;20295;-85
2021/08/31 13:16:10;;;;;;;5.83;5.20;;;;;;;23.39;47.80;99288.88;8614822;23;20186;-86
2021/08/31 13:19:32;;;;;;;6.53;5.90;;;;;;;22.66;48.99;99193.06;8628425;23;20173;-85
2021/08/31 13:22:55;;;;;;;5.63;5.13;;;;;;;24.04;48.29;99335.63;8628940;23;20180;-85
2021/08/31 13:26:19;;;;;;;7.23;4.87;;;;;;;23.37;47.07;99186.47;8631486;23;20185;-85
2021/08/31 13:29:42;;;;;;;6.37;5.37;;;;;;;24.46;47.30;99347.06;8616745;23;20218;-86
2021/08/31 13:33:04;;;;;;;5.50;5.00;;;;;;;24.10;46.80;99281.31;8617473;23;20515;-86
2021/08/31 13:36:25;;;;;;;5.47;4.87;;;;;;;23.88;46.48;99228.50;8617952;23;20186;-86
2021/08/31 13:39:49;;;;;;;5.17;4.67;;;;;;;23.46;46.67;99228.00;8630791;23;20187;-86
2021/08/31 13:43:11;;;;;;;7.00;4.93;;;;;;;24.07;46.61;99373.63;8618267;23;20286;-86
2021/08/31 13:46:33;;;;;;;5.23;4.73;;;;;;;23.27;47.69;99326.84;8631564;23;20182;-86
2021/08/31 13:49:55;;;;;;;6.57;5.40;;;;;;;23.30;49.33;99279.50;8616994;23;20209;-86
2021/08/31 13:53:17;;;;;;;5.20;4.80;;;;;;;23.81;49.03;99379.41;8631457;23;20171;-86
2021/08/31 13:56:41;;;;;;;5.87;5.37;;;;;;;23.18;50.21;99357.94;8616557;23;20182;-86
2021/08/31 14:00:02;;;;;;;7.17;5.20;;;;;;;22.06;51.27;99274.50;8616801;23;20470;-86
2021/08/31 14:03:24;;;;;;;5.80;5.30;;;;;;;22.17;50.52;99246.78;8617336;22;20208;-86
2021/08/31 14:06:46;;;;;;;6.30;5.50;;;;;;;22.17;49.90;99202.84;8616375;23;20178;-86
2021/08/31 14:10:08;;;;;;;6.57;5.97;;;;;;;23.02;49.39;99328.72;8616613;23;20665;-86
2021/08/31 14:13:32;;;;;;;7.80;6.27;;;;;;;23.18;49.14;99333.16;8630638;23;20179;-86
2021/08/31 14:16:53;;;;;;;6.40;5.80;;;;;;;23.32;48.13;99304.00;8616366;23;20175;-86
2021/08/31 14:20:15;;;;;;;6.67;6.07;;;;;;;23.39;49.16;99395.38;8616555;23;20177;-86
2021/08/31 14:23:37;;;;;;;6.73;6.13;;;;;;;22.87;50.08;99321.25;8616371;23;20174;-86
2021/08/31 14:26:59;;;;;;;8.17;7.37;;;;;;;23.10;48.94;99315.25;8616836;23;20178;-86
2021/08/31 14:30:22;;;;;;;6.37;5.77;;;;;;;23.83;48.67;99347.72;8615777;23;20197;-86
2021/08/31 14:33:44;;;;;;;6.07;5.47;;;;;;;24.21;48.51;99379.38;8630536;23;20184;-86
2021/08/31 14:37:06;;;;;;;6.07;5.47;;;;;;;24.37;48.98;99373.53;8630068;23;20173;-86
2021/08/31 14:40:28;;;;;;;5.60;5.10;;;;;;;24.54;48.28;99374.03;8630348;23;20638;-86
2021/08/31 14:43:49;;;;;;;8.03;5.23;;;;;;;24.23;48.85;99380.75;8630101;22;20185;-86
2021/08/31 14:47:17;;;;;;;5.87;5.37;;;;;;;23.16;49.66;99230.78;8616110;23;20186;-86
2021/08/31 14:50:39;;;;;;;6.20;5.60;;;;;;;23.57;48.04;99270.94;8615984;23;20188;-86
2021/08/31 14:54:01;;;;;;;6.77;5.63;;;;;;;23.30;49.68;99242.91;8630606;23;20506;-86
2021/08/31 14:57:23;;;;;;;8.43;5.80;;;;;;;23.13;48.32;99204.63;8616298;23;20509;-87
2021/08/31 15:00:44;;;;;;;5.93;5.33;;;;;;;23.88;48.48;99239.50;8615467;23;20182;-86
2021/08/31 15:04:07;;;;;;;5.67;5.17;;;;;;;23.55;47.01;99251.94;8629878;22;20202;-87
2021/08/31 15:07:29;;;;;;;7.70;5.30;;;;;;;24.43;46.35;99283.41;8629619;23;20176;-86
2021/08/31 15:10:51;;;;;;;6.10;5.33;;;;;;;23.96;47.85;99272.00;8629358;23;20198;-86
2021/08/31 15:14:12;;;;;;;8.37;5.97;;;;;;;24.07;46.52;99199.22;8615879;23;20174;-86
2021/08/31 15:17:34;;;;;;;6.80;5.13;;;;;;;24.59;48.12;99354.75;8630094;22;20631;-86
2021/08/31 15:20:58;;;;;;;6.37;5.23;;;;;;;23.93;47.54;99251.34;8629756;23;20647;-86
2021/08/31 15:24:20;;;;;;;6.53;5.07;;;;;;;23.55;48.12;99240.94;8629823;23;20175;-87
2021/08/31 15:27:41;;;;;;;7.90;5.90;;;;;;;24.30;47.54;99342.69;8629488;23;20233;-86
2021/08/31 15:31:03;;;;;;;5.60;5.10;;;;;;;23.47;47.07;99257.19;8628328;23;20200;-86
2021/08/31 15:34:25;;;;;;;5.87;5.33;;;;;;;23.64;45.79;99231.00;8629639;23;20177;-87
2021/08/31 15:37:49;;;;;;;7.20;5.13;;;;;;;24.60;45.77;99314.22;8629224;23;20175;-86
2021/08/31 15:41:10;;;;;;;5.97;5.10;;;;;;;23.40;46.48;99253.91;8615554;23;20584;-86
2021/08/31 15:44:34;;;;;;;5.53;5.03;;;;;;;24.89;45.28;99362.06;8615282;23;20178;-86
2021/08/31 15:47:56;;;;;;;8.33;5.07;;;;;;;25.02;45.01;99366.97;8615278;23;20182;-86
2021/08/31 15:51:18;;;;;;;5.90;4.90;;;;;;;24.65;44.97;99356.38;8629416;23;20203;-86
2021/08/31 15:54:42;;;;;;;7.13;4.70;;;;;;;23.89;45.21;99238.44;8629181;23;20170;-86
2021/08/31 15:58:04;;;;;;;5.40;4.90;;;;;;;24.80;45.80;99364.59;8628630;23;20170;-86
2021/08/31 16:01:26;;;;;;;6.20;5.00;;;;;;;24.25;46.19;99367.50;8628816;22;20201;-86
2021/08/31 16:04:49;;;;;;;6.73;4.43;;;;;;;23.79;46.00;99332.84;8588042;23;20669;-86
2021/08/31 16:08:11;;;;;;;5.60;5.10;;;;;;;24.25;45.67;99311.59;8615139;23;20499;-86
2021/08/31 16:11:34;;;;;;;6.07;4.97;;;;;;;23.43;45.38;99221.13;8615270;23;20205;-86
2021/08/31 16:14:56;;;;;;;6.10;5.17;;;;;;;23.56;45.26;99230.75;8628872;23;20178;-86
2021/08/31 16:18:18;;;;;;;6.43;5.17;;;;;;;24.07;45.83;99293.72;8628367;23;20181;-87
2021/08/31 16:21:42;;;;;;;5.60;4.83;;;;;;;24.26;46.23;99327.00;8629367;23;20608;-86
2021/08/31 16:25:05;;;;;;;6.37;5.77;;;;;;;23.45;46.10;99240.13;8628835;23;20170;-86
2021/08/31 16:28:28;;;;;;;5.70;5.10;;;;;;;23.81;46.06;99245.28;8628350;23;20174;-86
2021/08/31 16:31:50;;;;;;;5.80;5.30;;;;;;;24.05;46.41;99295.09;8614499;23;20211;-86
2021/08/31 16:35:18;;;;;;;5.80;5.20;;;;;;;24.50;46.03;99363.88;8615142;23;20164;-87
2021/08/31 16:38:40;;;;;;;7.40;5.63;;;;;;;23.76;46.08;99261.81;8614195;23;20164;-86
2021/08/31 16:42:02;;;;;;;6.60;6.00;;;;;;;23.67;47.81;99342.53;8615205;23;20189;-86
2021/08/31 16:45:25;;;;;;;5.97;5.37;;;;;;;23.18;47.07;99240.44;8614515;23;20175;-87
2021/08/31 16:48:47;;;;;;;5.97;5.47;;;;;;;24.35;46.93;99378.53;8614515;23;20181;-87
2021/08/31 16:52:08;;;;;;;5.60;5.07;;;;;;;24.29;46.75;99378.81;8614538;23;20205;-87
2021/08/31 16:55:30;;;;;;;6.33;5.73;;;;;;;23.63;47.07;99311.13;8628394;22;20185;-86
2021/08/31 16:58:52;;;;;;;6.50;5.80;;;;;;;23.35;47.48;99274.00;8616283;23;20178;-86
2021/08/31 17:02:15;;;;;;;6.77;6.13;;;;;;;23.77;47.16;99320.50;8631236;22;20190;-86
2021/08/31 17:05:38;;;;;;;6.10;5.50;;;;;;;23.55;47.61;99319.97;8631459;23;20642;-86
2021/08/31 17:09:00;;;;;;;6.50;5.90;;;;;;;23.73;47.76;99372.53;8616998;23;20256;-87
2021/08/31 17:12:22;;;;;;;5.77;5.27;;;;;;;23.59;47.44;99330.13;8617214;23;20209;-87
2021/08/31 17:15:44;;;;;;;8.20;6.00;;;;;;;23.36;47.56;99338.13;8617000;23;20177;-86
2021/08/31 17:19:07;;;;;;;7.67;6.37;;;;;;;23.82;48.26;99390.16;8631333;23;20180;-86
2021/08/31 17:22:29;;;;;;;7.83;6.43;;;;;;;23.59;48.68;99385.19;8631735;22;20185;-86
2021/08/31 17:25:51;;;;;;;6.73;6.03;;;;;;;22.93;48.55;99333.91;8617031;23;20178;-86
2021/08/31 17:29:12;;;;;;;6.17;5.57;;;;;;;23.27;48.97;99395.66;8616946;23;20317;-86
2021/08/31 17:32:34;;;;;;;6.90;6.20;;;;;;;22.33;50.35;99300.72;8630913;23;20199;-86
2021/08/31 17:35:57;;;;;;;7.20;5.87;;;;;;;22.56;50.18;99337.91;8630975;23;20534;-86
2021/08/31 17:39:19;;;;;;;5.90;5.40;;;;;;;22.26;50.08;99256.19;8631221;23;20180;-86
2021/08/31 17:42:41;;;;;;;9.60;6.17;;;;;;;22.29;49.77;99219.06;8631066;23;20180;-86
2021/08/31 17:46:03;;;;;;;7.73;6.07;;;;;;;22.41;50.30;99222.41;8616639;23;20183;-86
2021/08/31 17:49:25;;;;;;;6.93;6.13;;;;;;;22.29;52.09;99274.88;8630505;23;20531;-86
2021/08/31 17:52:48;;;;;;;6.73;5.80;;;;;;;22.58;52.64;99380.53;8617254;23;20280;-87
2021/08/31 17:56:10;;;;;;;7.13;6.20;;;;;;;22.42;52.82;99372.47;8616698;23;20178;-86
2021/08/31 17:59:32;;;;;;;6.77;6.17;;;;;;;21.43;53.13;99234.28;8616048;23;20316;-85
2021/08/31 18:02:53;;;;;;;7.27;6.57;;;;;;;21.57;56.62;99413.88;8630997;22;20200;-85
2021/08/31 18:06:15;;;;;;;7.53;6.70;;;;;;;20.62;56.71;99271.38;8617038;23;20178;-86
2021/08/31 18:09:38;;;;;;;9.67;6.10;;;;;;;21.34;56.35;99328.31;8629878;23;20207;-86
2021/08/31 18:13:01;;;;;;;8.63;6.67;;;;;;;21.80;56.22;99424.53;8630370;23;20201;-86
2021/08/31 18:16:23;;;;;;;9.47;6.90;;;;;;;21.27;56.44;99363.38;8630293;22;20192;-86
2021/08/31 18:19:45;;;;;;;9.63;7.10;;;;;;;21.15;56.68;99346.25;8616444;23;20182;-86
2021/08/31 18:23:07;;;;;;;8.73;6.97;;;;;;;21.01;57.21;99391.63;8630563;23;20312;-86
2021/08/31 18:26:30;;;;;;;8.97;6.87;;;;;;;20.54;57.43;99300.09;8616781;23;20195;-86
2021/08/31 18:29:52;;;;;;;8.53;7.23;;;;;;;20.75;58.12;99362.25;8630331;23;20498;-86
2021/08/31 18:33:13;;;;;;;9.03;7.93;;;;;;;19.97;58.83;99295.22;8616226;23;20201;-86
2021/08/31 18:36:35;;;;;;;8.27;7.17;;;;;;;20.11;57.43;99291.06;8616468;23;20624;-86
2021/08/31 18:39:57;;;;;;;8.93;7.10;;;;;;;21.10;57.73;99458.63;8616219;23;20691;-86
2021/08/31 18:43:20;;;;;;;9.30;6.90;;;;;;;20.52;58.08;99373.47;8616058;23;20178;-86
2021/08/31 18:46:42;;;;;;;7.77;7.07;;;;;;;19.83;57.96;99305.72;8630092;23;20192;-86
2021/08/31 18:50:05;;;;;;;7.03;6.30;;;;;;;20.10;58.74;99423.56;8629700;22;20181;-86
2021/08/31 18:53:27;;;;;;;8.80;6.60;;;;;;;19.34;59.14;99311.25;8616438;23;20518;-86
2021/08/31 18:56:49;;;;;;;12.13;7.40;;;;;;;19.71;59.17;99400.75;8616290;23;20182;-87
2021/08/31 19:00:16;;;;;;;9.63;7.47;;;;;;;20.03;59.24;99423.69;8616096;23;20182;-86
2021/08/31 19:03:38;;;;;;;9.00;8.10;;;;;;;19.42;60.64;99396.44;8629808;22;20349;-86
2021/08/31 19:07:00;;;;;;;9.67;7.60;;;;;;;19.50;59.85;99395.19;8616217;23;20510;-86
2021/08/31 19:10:21;;;;;;;9.60;6.93;;;;;;;19.65;59.12;99412.72;8615973;23;20481;-86
2021/08/31 19:13:45;;;;;;;8.83;7.47;;;;;;;19.77;59.20;99423.56;8629663;23;20178;-86
2021/08/31 19:17:08;;;;;;;9.27;7.40;;;;;;;19.99;59.20;99460.03;8629602;23;20177;-86
2021/08/31 19:20:30;;;;;;;8.13;7.20;;;;;;;19.04;59.60;99359.91;8628843;23;20176;-86
2021/08/31 19:23:53;;;;;;;9.00;7.83;;;;;;;19.94;59.86;99510.03;8629578;22;20180;-86
2021/08/31 19:27:15;;;;;;;7.83;7.03;;;;;;;19.83;59.36;99485.50;8615660;23;20174;-86
2021/08/31 19:30:37;;;;;;;8.20;7.50;;;;;;;19.09;60.23;99420.94;8615645;23;20493;-86
2021/08/31 19:34:00;;;;;;;9.87;7.37;;;;;;;19.33;59.79;99428.00;8629619;23;20186;-86
2021/08/31 19:37:22;;;;;;;9.70;7.50;;;;;;;18.50;60.25;99331.28;8629370;23;20173;-86
2021/08/31 19:40:44;;;;;;;8.67;7.87;;;;;;;19.04;60.49;99452.84;8629078;22;20181;-86
2021/08/31 19:44:06;;;;;;;10.67;8.57;;;;;;;18.20;62.26;99366.09;8629299;22;20253;-86
2021/08/31 19:47:29;;;;;;;9.67;8.40;;;;;;;19.27;62.02;99511.00;8629197;23;20210;-86
2021/08/31 19:50:53;;;;;;;10.60;8.60;;;;;;;19.17;60.47;99479.88;8614768;23;20203;-86
2021/08/31 19:54:14;;;;;;;8.13;7.33;;;;;;;19.06;60.54;99437.00;8614953;23;20259;-86
2021/08/31 19:57:36;;;;;;;8.87;7.53;;;;;;;19.55;60.42;99526.56;8615655;23;20184;-86
2021/08/31 20:00:58;;;;;;;8.50;7.60;;;;;;;19.20;59.96;99462.97;8629057;22;20179;-86
2021/08/31 20:04:20;;;;;;;11.40;8.57;;;;;;;18.48;60.26;99400.84;8614911;23;20174;-86
2021/08/31 20:07:43;;;;;;;12.27;8.13;;;;;;;18.94;60.92;99485.41;8629098;23;20257;-86